Time;durP1;ratioP1;P1;durP2;ratioP2;P2;SDS_P1;SDS_P2;PMS_P1;PMS_P2;Temp;Humidity;BMP_temperature;BMP_pressure;BME280_temperature;BME280_humidity;BME280_pressure;Samples;Min_cycle;Max_cycle;Signal;HPM_P1;HPM_P2
2023/09/15 00:04:06;;;;;;;1.90;1.80;;;;;;;15.67;76.82;100507.92;217342;1263;140744;-81
2023/09/15 00:09:14;;;;;;;2.00;1.60;;;;;;;15.62;76.77;100514.63;218087;1259;141021;-82
2023/09/15 00:14:18;;;;;;;3.80;1.80;;;;;;;15.53;76.90;100515.84;217299;1262;139882;-82
2023/09/15 00:19:22;;;;;;;4.00;1.70;;;;;;;15.42;76.97;100513.20;217812;1260;140187;-80
2023/09/15 00:24:25;;;;;;;3.70;1.60;;;;;;;15.30;77.05;100513.20;217927;1262;141659;-80
2023/09/15 00:29:28;;;;;;;5.20;2.30;;;;;;;15.17;77.11;100515.69;217976;1258;140374;-71
2023/09/15 00:34:32;;;;;;;3.40;2.70;;;;;;;15.07;77.40;100515.52;218024;1262;140084;-77
2023/09/15 00:39:36;;;;;;;3.10;2.30;;;;;;;15.00;77.37;100514.08;218299;1262;140847;-76
2023/09/15 00:44:39;;;;;;;3.20;2.00;;;;;;;14.94;77.46;100527.80;217909;1258;140110;-80
2023/09/15 00:49:44;;;;;;;2.60;2.10;;;;;;;14.89;77.38;100532.54;218347;1258;139942;-78
2023/09/15 00:54:48;;;;;;;2.10;1.90;;;;;;;14.81;77.38;100533.85;218036;1258;140629;-72
2023/09/15 00:59:52;;;;;;;1.80;1.70;;;;;;;14.72;77.43;100531.33;217672;1263;141703;-71
2023/09/15 01:04:56;;;;;;;3.20;1.90;;;;;;;14.60;77.29;100536.66;217388;1258;141345;-69
2023/09/15 01:10:00;;;;;;;2.90;1.30;;;;;;;14.48;77.46;100544.92;218701;1257;140010;-72
2023/09/15 01:15:03;;;;;;;3.00;2.20;;;;;;;14.35;77.29;100550.02;217793;1258;140381;-72
2023/09/15 01:20:20;;;;;;;3.70;2.20;;;;;;;14.23;77.46;100557.45;218445;1259;141106;-72
2023/09/15 01:25:32;;;;;;;2.70;2.50;;;;;;;14.07;77.48;100554.27;218306;1258;141825;-71
2023/09/15 01:30:38;;;;;;;2.50;1.90;;;;;;;13.92;77.85;100553.18;217386;1263;140392;-75
2023/09/15 01:35:42;;;;;;;3.70;1.80;;;;;;;13.74;77.73;100553.40;217203;1263;140426;-77
2023/09/15 01:40:45;;;;;;;2.10;1.60;;;;;;;13.61;77.84;100555.59;217258;1263;141017;-72
2023/09/15 01:45:48;;;;;;;2.50;2.10;;;;;;;13.50;78.00;100553.45;217341;1263;141536;-73
2023/09/15 01:50:54;;;;;;;4.10;2.40;;;;;;;13.38;78.19;100564.55;217439;1258;142752;-77
2023/09/15 01:55:58;;;;;;;3.20;1.80;;;;;;;13.24;77.91;100565.48;218051;1257;140241;-76
2023/09/15 02:01:02;;;;;;;11.40;2.10;;;;;;;13.11;78.29;100561.43;217422;1263;140214;-76
2023/09/15 02:06:06;;;;;;;2.30;2.10;;;;;;;12.99;78.29;100562.84;217223;1259;140077;-72
2023/09/15 02:11:11;;;;;;;3.30;1.70;;;;;;;12.85;78.59;100562.65;217637;1257;140172;-72
2023/09/15 02:16:15;;;;;;;6.40;2.60;;;;;;;12.77;78.95;100564.06;218154;1263;140291;-72
2023/09/15 02:21:19;;;;;;;2.40;2.20;;;;;;;12.75;79.16;100563.52;217645;1261;141359;-71
2023/09/15 02:26:23;;;;;;;2.80;2.30;;;;;;;12.68;79.34;100566.91;217837;1260;139838;-71
2023/09/15 02:31:30;;;;;;;2.50;2.10;;;;;;;12.59;79.22;100572.70;217559;1260;140280;-75
2023/09/15 02:36:34;;;;;;;3.70;2.10;;;;;;;12.46;79.57;100572.33;217947;1261;141451;-73
2023/09/15 02:41:38;;;;;;;2.70;2.20;;;;;;;12.40;79.85;100576.14;218392;1261;141709;-75
2023/09/15 02:46:42;;;;;;;5.20;2.10;;;;;;;12.35;80.02;100581.23;217523;1257;141015;-71
2023/09/15 02:51:46;;;;;;;4.30;2.40;;;;;;;12.27;79.89;100578.52;218059;1257;140529;-82
2023/09/15 02:56:50;;;;;;;2.80;1.20;;;;;;;12.19;79.76;100579.34;217857;1258;140202;-78
2023/09/15 03:01:54;;;;;;;3.90;1.70;;;;;;;12.05;79.77;100584.51;218313;1257;140927;-78
2023/09/15 03:06:57;;;;;;;3.10;2.10;;;;;;;11.90;79.80;100582.77;219608;1257;140771;-72
2023/09/15 03:12:00;;;;;;;3.00;1.50;;;;;;;11.79;79.94;100583.73;218151;1258;140639;-81
2023/09/15 03:17:04;;;;;;;3.30;2.40;;;;;;;11.70;80.20;100589.14;217467;1257;140330;-73
2023/09/15 03:22:08;;;;;;;7.70;4.00;;;;;;;11.66;80.39;100593.41;217326;1261;139994;-76
2023/09/15 03:27:13;;;;;;;3.60;2.60;;;;;;;11.59;80.31;100592.34;217472;1258;140295;-70
2023/09/15 03:32:17;;;;;;;2.40;1.90;;;;;;;11.50;80.31;100595.42;217612;1261;139894;-73
2023/09/15 03:37:21;;;;;;;2.60;2.20;;;;;;;11.40;80.47;100593.77;217609;1258;140256;-72
2023/09/15 03:42:26;;;;;;;4.40;2.40;;;;;;;11.31;80.24;100594.08;217283;1258;140656;-79
2023/09/15 03:47:28;;;;;;;5.70;3.10;;;;;;;11.23;80.67;100600.06;217507;1257;140964;-80
2023/09/15 03:52:30;;;;;;;3.10;1.90;;;;;;;11.14;80.61;100608.25;217494;1263;141299;-72
2023/09/15 03:57:33;;;;;;;2.40;2.20;;;;;;;11.00;80.31;100613.85;218423;1259;141217;-74
2023/09/15 04:02:37;;;;;;;3.80;2.20;;;;;;;10.93;80.59;100619.95;217662;1261;140263;-73
2023/09/15 04:07:40;;;;;;;1.40;1.30;;;;;;;10.83;80.55;100627.67;217387;1257;140528;-71
2023/09/15 04:12:44;;;;;;;2.10;1.90;;;;;;;10.69;80.48;100629.40;217626;1259;139792;-72
2023/09/15 04:17:47;;;;;;;1.60;1.50;;;;;;;10.51;80.51;100633.63;218037;1262;141984;-71
2023/09/15 04:22:50;;;;;;;2.40;1.90;;;;;;;10.37;80.70;100634.43;218183;1257;140489;-72
2023/09/15 04:27:54;;;;;;;3.60;1.40;;;;;;;10.32;81.18;100635.15;217221;1258;140978;-70
2023/09/15 04:32:59;;;;;;;2.10;1.70;;;;;;;10.33;81.49;100637.20;217849;1257;140713;-74
2023/09/15 04:38:03;;;;;;;3.00;1.20;;;;;;;10.33;81.47;100642.45;218092;1257;140460;-80
2023/09/15 04:43:07;;;;;;;2.50;2.10;;;;;;;10.33;81.53;100647.08;217619;1257;139971;-73
2023/09/15 04:48:10;;;;;;;1.90;1.60;;;;;;;10.35;81.66;100647.98;219239;1257;140192;-73
2023/09/15 04:53:14;;;;;;;5.50;2.10;;;;;;;10.35;81.61;100649.87;218861;1257;140440;-73
2023/09/15 04:58:19;;;;;;;2.10;1.60;;;;;;;10.32;81.41;100651.52;218791;1257;139745;-73
2023/09/15 05:03:23;;;;;;;3.30;1.80;;;;;;;10.34;81.98;100661.77;220174;1257;140899;-75
2023/09/15 05:08:29;;;;;;;5.30;2.00;;;;;;;10.41;82.17;100663.36;219240;1257;140174;-71
2023/09/15 05:13:34;;;;;;;2.40;1.70;;;;;;;10.50;82.20;100664.27;218384;1259;140761;-71
2023/09/15 05:18:38;;;;;;;3.50;2.70;;;;;;;10.53;82.34;100665.61;218326;1257;151844;-69
2023/09/15 05:23:40;;;;;;;3.90;1.90;;;;;;;10.59;82.63;100666.12;218861;1257;141273;-69
2023/09/15 05:28:44;;;;;;;3.30;2.40;;;;;;;10.70;82.89;100668.38;217956;1257;140531;-69
2023/09/15 05:33:48;;;;;;;3.40;2.30;;;;;;;10.82;83.25;100663.74;217203;1257;140290;-69
2023/09/15 05:38:52;;;;;;;3.80;3.10;;;;;;;10.93;83.24;100666.44;217641;1257;141546;-69
2023/09/15 05:43:55;;;;;;;3.50;2.80;;;;;;;11.03;83.60;100673.05;217586;1259;140852;-69
2023/09/15 05:48:59;;;;;;;4.40;2.90;;;;;;;11.13;83.81;100674.55;217272;1259;140853;-70
2023/09/15 05:54:03;;;;;;;5.90;2.70;;;;;;;11.24;83.70;100678.92;217479;1257;142370;-71
2023/09/15 05:59:06;;;;;;;3.30;2.90;;;;;;;11.37;84.12;100685.40;217367;1260;141254;-70
2023/09/15 06:04:10;;;;;;;3.60;3.00;;;;;;;11.52;84.02;100686.80;217253;1262;141331;-70
2023/09/15 06:09:15;;;;;;;3.80;3.10;;;;;;;11.67;83.94;100683.97;217948;1258;142501;-69
2023/09/15 06:14:18;;;;;;;4.00;2.70;;;;;;;11.82;83.57;100681.48;217537;1258;140685;-70
2023/09/15 06:19:21;;;;;;;4.00;2.60;;;;;;;11.97;83.52;100687.95;217843;1257;140807;-70
2023/09/15 06:24:24;;;;;;;4.40;3.30;;;;;;;12.10;83.43;100686.10;217826;1257;141370;-71
2023/09/15 06:29:28;;;;;;;3.90;2.70;;;;;;;12.24;82.98;100691.00;217248;1260;140534;-72
2023/09/15 06:34:33;;;;;;;2.70;1.70;;;;;;;12.35;82.94;100686.31;218095;1259;140282;-72
2023/09/15 06:39:40;;;;;;;4.70;2.60;;;;;;;12.48;82.70;100687.70;217180;1259;142816;-69
2023/09/15 06:44:45;;;;;;;10.60;3.20;;;;;;;12.64;82.68;100688.52;217235;1257;140901;-69
2023/09/15 06:49:49;;;;;;;3.00;2.50;;;;;;;12.95;82.44;100685.69;217148;1262;141361;-69
2023/09/15 06:54:53;;;;;;;2.30;1.90;;;;;;;13.63;81.90;100687.14;220007;1257;141343;-69
2023/09/15 06:59:55;;;;;;;4.30;1.20;;;;;;;14.67;81.20;100684.14;219682;1257;140226;-70
2023/09/15 07:04:58;;;;;;;1.70;1.10;;;;;;;15.91;80.36;100687.05;219908;1259;140612;-70
2023/09/15 07:10:02;;;;;;;1.80;1.50;;;;;;;17.40;78.66;100689.97;218728;1257;140034;-70
2023/09/15 07:15:06;;;;;;;3.80;1.50;;;;;;;19.04;76.62;100696.77;217267;1258;140734;-71
2023/09/15 07:20:09;;;;;;;1.50;1.40;;;;;;;20.58;74.48;100691.87;218130;1257;139723;-71
2023/09/15 07:25:15;;;;;;;1.30;1.20;;;;;;;21.81;72.02;100688.77;217765;1258;140629;-69
2023/09/15 07:30:18;;;;;;;7.10;1.40;;;;;;;22.55;70.02;100692.85;217257;1259;139827;-69
2023/09/15 07:35:22;;;;;;;3.50;1.70;;;;;;;22.78;67.76;100699.27;217945;1257;1143330;-71
2023/09/15 07:40:26;;;;;;;2.50;1.40;;;;;;;22.80;65.92;100702.55;217024;1257;140675;-71
2023/09/15 07:45:30;;;;;;;1.80;1.50;;;;;;;22.89;64.64;100699.84;217294;1257;139737;-70
2023/09/15 07:50:34;;;;;;;4.40;1.40;;;;;;;22.92;63.42;100707.13;217929;1257;159125;-70
2023/09/15 07:55:38;;;;;;;3.40;1.30;;;;;;;22.71;62.03;100706.52;217398;1258;140323;-70
2023/09/15 08:00:41;;;;;;;1.00;0.90;;;;;;;22.46;61.28;100710.36;217671;1257;140339;-81
2023/09/15 08:05:44;;;;;;;2.50;1.00;;;;;;;22.35;60.78;100711.35;217229;1257;139783;-82
2023/09/15 08:10:49;;;;;;;0.90;0.90;;;;;;;22.23;60.29;100710.90;218694;1257;140315;-73
2023/09/15 08:15:56;;;;;;;0.90;0.80;;;;;;;22.08;59.22;100709.25;217401;1262;140374;-73
2023/09/15 08:20:58;;;;;;;3.50;1.10;;;;;;;21.81;58.47;100712.80;219169;1257;140658;-75
2023/09/15 08:26:02;;;;;;;3.80;1.10;;;;;;;21.58;58.10;100712.09;217898;1259;139753;-76
2023/09/15 08:31:06;;;;;;;1.90;1.10;;;;;;;21.47;57.41;100710.97;217373;1262;139280;-74
2023/09/15 08:36:09;;;;;;;2.10;0.90;;;;;;;21.45;56.96;100718.30;218171;1259;140805;-74
2023/09/15 08:41:29;;;;;;;2.80;1.30;;;;;;;21.44;56.71;100719.23;217231;1262;140466;-71
2023/09/15 08:46:34;;;;;;;2.80;1.20;;;;;;;21.56;56.14;100719.10;220058;1257;244822;-71
2023/09/15 08:51:39;;;;;;;2.20;1.50;;;;;;;21.53;55.60;100713.10;220031;1257;140063;-70
2023/09/15 08:56:44;;;;;;;8.60;1.70;;;;;;;21.59;55.40;100709.31;218871;1257;139652;-70
2023/09/15 09:01:47;;;;;;;0.80;0.80;;;;;;;21.75;55.31;100704.71;219349;1257;140586;-71
2023/09/15 09:06:52;;;;;;;2.10;1.00;;;;;;;21.85;55.10;100708.10;218904;1259;140357;-71
2023/09/15 09:11:58;;;;;;;1.50;1.20;;;;;;;21.96;53.79;100706.15;217831;1257;140216;-74
2023/09/15 09:17:01;;;;;;;2.60;0.90;;;;;;;21.86;52.62;100712.32;216959;1257;140021;-75
2023/09/15 09:22:09;;;;;;;1.70;1.40;;;;;;;21.72;51.00;100714.02;218011;1257;139546;-78
2023/09/15 09:27:13;;;;;;;4.00;1.10;;;;;;;21.71;50.93;100715.64;217516;1259;141491;-78
2023/09/15 09:32:18;;;;;;;1.80;1.30;;;;;;;21.76;51.06;100716.20;218150;1257;142646;-71
2023/09/15 09:37:28;;;;;;;1.40;1.10;;;;;;;21.91;50.53;100720.54;217490;1262;139899;-72
2023/09/15 09:42:34;;;;;;;1.70;1.20;;;;;;;22.04;50.28;100720.36;217121;1258;139493;-71
2023/09/15 09:47:39;;;;;;;1.00;0.70;;;;;;;22.05;49.64;100713.29;217546;1257;139782;-71
2023/09/15 09:52:42;;;;;;;0.90;0.80;;;;;;;22.04;49.80;100717.17;217781;1257;140639;-72
2023/09/15 09:57:44;;;;;;;2.30;1.10;;;;;;;21.99;49.39;100719.27;217464;1262;139725;-70
2023/09/15 10:02:48;;;;;;;1.30;1.10;;;;;;;22.03;49.30;100712.72;217400;1259;140006;-70
2023/09/15 10:07:52;;;;;;;1.20;1.10;;;;;;;22.09;49.13;100713.15;218848;1259;139529;-69
2023/09/15 10:13:00;;;;;;;3.50;1.70;;;;;;;22.25;49.22;100708.44;217324;1258;139878;-72
2023/09/15 10:18:06;;;;;;;1.50;1.30;;;;;;;22.41;49.14;100704.92;217529;1262;140133;-75
2023/09/15 10:23:12;;;;;;;1.40;1.20;;;;;;;22.55;48.95;100708.62;217310;1258;140703;-73
2023/09/15 10:28:18;;;;;;;3.10;1.30;;;;;;;22.51;48.20;100708.77;218182;1257;138918;-70
2023/09/15 10:33:44;;;;;;;0.80;0.80;;;;;;;22.42;48.24;100700.41;217713;1260;139918;-74
2023/09/15 10:38:49;;;;;;;8.90;1.50;;;;;;;22.52;48.12;100701.16;218172;1257;139158;-72
2023/09/15 10:43:53;;;;;;;2.40;1.10;;;;;;;22.66;47.68;100696.41;218228;1259;140841;-77
2023/09/15 10:48:56;;;;;;;1.90;1.00;;;;;;;22.78;46.89;100697.36;218461;1258;139686;-73
2023/09/15 10:54:02;;;;;;;4.90;1.50;;;;;;;22.61;45.83;100691.91;218448;1258;140085;-72
2023/09/15 10:59:05;;;;;;;6.30;1.70;;;;;;;22.59;46.13;100684.98;217548;1262;140215;-74
2023/09/15 11:04:10;;;;;;;1.60;1.20;;;;;;;22.65;45.15;100684.95;218380;1257;139541;-75
2023/09/15 11:09:14;;;;;;;1.20;1.10;;;;;;;22.63;44.81;100679.33;218812;1258;139793;-77
2023/09/15 11:14:19;;;;;;;1.80;1.40;;;;;;;22.76;44.68;100680.84;217906;1257;151322;-70
2023/09/15 11:19:30;;;;;;;3.90;1.10;;;;;;;22.88;44.79;100672.61;217775;1259;139170;-76
2023/09/15 11:24:34;;;;;;;1.40;1.20;;;;;;;22.96;44.80;100665.52;217458;1257;139903;-75
2023/09/15 11:29:41;;;;;;;1.40;1.10;;;;;;;22.94;44.45;100658.75;218047;1257;138671;-73
2023/09/15 11:34:52;;;;;;;3.30;1.20;;;;;;;23.06;44.16;100651.56;217950;1259;139667;-72
2023/09/15 11:39:55;;;;;;;1.40;1.30;;;;;;;23.16;43.73;100650.93;217730;1257;139516;-75
2023/09/15 11:45:00;;;;;;;1.70;1.50;;;;;;;23.26;44.11;100643.58;217993;1259;139570;-75
2023/09/15 11:50:05;;;;;;;2.20;1.80;;;;;;;23.32;44.23;100641.73;218135;1257;139612;-76
2023/09/15 11:55:20;;;;;;;5.90;1.80;;;;;;;23.37;44.62;100635.77;217578;1261;138898;-74
2023/09/15 12:00:31;;;;;;;2.50;1.70;;;;;;;23.40;44.64;100642.08;217849;1259;140088;-78
2023/09/15 12:05:35;;;;;;;1.90;1.70;;;;;;;23.38;44.33;100646.20;217464;1258;141372;-77
2023/09/15 12:10:42;;;;;;;2.20;2.00;;;;;;;23.34;44.79;100648.61;217541;1257;139704;-76
2023/09/15 12:15:50;;;;;;;2.20;1.30;;;;;;;23.23;44.76;100648.73;217890;1257;139433;-76
2023/09/15 12:20:53;;;;;;;3.70;1.80;;;;;;;23.08;44.78;100642.13;217606;1260;141303;-75
2023/09/15 12:25:57;;;;;;;3.60;1.60;;;;;;;23.12;45.75;100630.91;217312;1261;140120;-77
2023/09/15 12:31:01;;;;;;;2.20;1.70;;;;;;;23.27;45.61;100635.35;217817;1261;140054;-81
2023/09/15 12:36:04;;;;;;;2.80;1.90;;;;;;;23.42;45.58;100626.55;218497;1257;139431;-78
2023/09/15 12:41:08;;;;;;;1.80;1.60;;;;;;;23.44;45.40;100613.84;217897;1257;139616;-74
2023/09/15 12:46:16;;;;;;;6.10;1.60;;;;;;;23.34;45.13;100610.23;217561;1258;244246;-74
2023/09/15 12:51:24;;;;;;;1.80;1.70;;;;;;;23.31;45.45;100606.44;218127;1257;139773;-73
2023/09/15 12:56:27;;;;;;;2.30;2.00;;;;;;;23.30;45.45;100598.23;218356;1260;140035;-78
2023/09/15 13:01:34;;;;;;;3.80;2.00;;;;;;;23.23;45.32;100599.73;217923;1257;140399;-71
2023/09/15 13:06:39;;;;;;;2.80;1.70;;;;;;;23.15;45.30;100591.70;218485;1259;140109;-72
2023/09/15 13:11:43;;;;;;;2.80;2.40;;;;;;;23.12;45.56;100590.00;217850;1257;139428;-74
2023/09/15 13:16:48;;;;;;;4.10;1.60;;;;;;;23.16;45.90;100581.78;217444;1258;140101;-77
2023/09/15 13:21:51;;;;;;;3.40;2.30;;;;;;;23.15;45.70;100574.77;218446;1259;140521;-78
2023/09/15 13:26:56;;;;;;;7.20;2.20;;;;;;;23.13;45.48;100575.79;217862;1259;141837;-78
2023/09/15 13:32:00;;;;;;;2.40;1.80;;;;;;;23.16;45.24;100570.78;217397;1260;140048;-77
2023/09/15 13:37:08;;;;;;;12.20;11.10;;;;;;;23.13;45.28;100565.45;218175;1256;140048;-77
2023/09/15 13:42:12;;;;;;;2.40;2.20;;;;;;;23.02;45.60;100558.67;217608;1259;140630;-79
2023/09/15 13:47:16;;;;;;;2.00;1.90;;;;;;;22.99;45.67;100557.91;217360;1258;210067;-79
2023/09/15 13:52:20;;;;;;;2.00;1.70;;;;;;;22.94;45.64;100559.23;217674;1262;140618;-77
2023/09/15 13:57:22;;;;;;;3.20;1.80;;;;;;;22.90;45.44;100554.84;217959;1261;139661;-77
2023/09/15 14:02:33;;;;;;;2.00;1.90;;;;;;;22.74;45.51;100553.60;217673;1261;139599;-71
2023/09/15 14:07:38;;;;;;;2.20;1.70;;;;;;;22.68;45.59;100550.59;218105;1260;140150;-78
2023/09/15 14:12:42;;;;;;;2.40;2.20;;;;;;;22.64;45.70;100546.52;219252;1259;140138;-78
2023/09/15 14:17:46;;;;;;;7.30;2.20;;;;;;;22.60;45.66;100538.11;218263;1257;139300;-75
2023/09/15 14:22:49;;;;;;;27.90;21.50;;;;;;;22.50;45.64;100540.23;217859;1256;139666;-78
2023/09/15 14:27:52;;;;;;;4.40;2.40;;;;;;;22.42;45.85;100539.48;217451;1262;140400;-79
2023/09/15 14:32:59;;;;;;;71.30;44.10;;;;;;;22.36;45.82;100532.44;217698;1258;139167;-78
2023/09/15 14:38:02;;;;;;;3.50;2.00;;;;;;;22.25;46.15;100526.30;218653;1256;140207;-79
2023/09/15 14:43:05;;;;;;;12.10;5.70;;;;;;;22.13;46.23;100525.85;218625;1259;139777;-70
2023/09/15 14:48:08;;;;;;;4.60;2.20;;;;;;;22.09;46.52;100526.06;218922;1260;139475;-77
2023/09/15 14:53:14;;;;;;;2.70;1.90;;;;;;;22.05;46.43;100526.34;219210;1260;163429;-76
2023/09/15 14:58:17;;;;;;;2.80;2.00;;;;;;;21.95;46.59;100525.69;218163;1258;139492;-75
2023/09/15 15:03:21;;;;;;;3.00;2.00;;;;;;;21.85;46.89;100524.82;218218;1259;139380;-77
2023/09/15 15:08:27;;;;;;;2.20;1.80;;;;;;;21.77;47.19;100525.14;218072;1262;140177;-76
2023/09/15 15:13:31;;;;;;;3.00;1.90;;;;;;;21.70;47.29;100517.30;217744;1259;139509;-76
2023/09/15 15:18:35;;;;;;;3.70;1.80;;;;;;;21.63;47.44;100515.98;217860;1262;140086;-78
2023/09/15 15:23:39;;;;;;;3.90;2.50;;;;;;;21.51;47.70;100510.15;217531;1262;139773;-77
2023/09/15 15:28:44;;;;;;;5.20;2.20;;;;;;;21.35;47.82;100504.02;218059;1257;140160;-78
2023/09/15 15:33:52;;;;;;;7.10;4.70;;;;;;;21.22;48.02;100509.80;217990;1261;140070;-77
2023/09/15 15:38:57;;;;;;;3.70;2.50;;;;;;;21.10;48.51;100503.76;217715;1262;139404;-77
2023/09/15 15:44:00;;;;;;;1.80;1.70;;;;;;;21.00;48.79;100506.14;217507;1259;139399;-79
2023/09/15 15:49:03;;;;;;;3.10;2.40;;;;;;;20.87;49.11;100511.06;217596;1259;139896;-84
2023/09/15 15:54:07;;;;;;;3.70;1.80;;;;;;;20.73;49.73;100517.80;217226;1257;139298;-74
2023/09/15 15:59:10;;;;;;;6.60;2.60;;;;;;;20.55;50.27;100519.39;217513;1258;140171;-83
2023/09/15 16:04:13;;;;;;;2.50;1.90;;;;;;;20.35;50.93;100517.66;217310;1262;139503;-86
2023/09/15 16:09:20;;;;;;;14.50;1.70;;;;;;;20.11;51.57;100517.41;217950;1262;139737;-79
2023/09/15 16:14:24;;;;;;;7.00;2.50;;;;;;;19.84;52.11;100521.75;217249;1262;141001;-77
2023/09/15 16:19:27;;;;;;;2.60;2.20;;;;;;;19.60;52.68;100518.21;217267;1257;140058;-81
2023/09/15 16:24:29;;;;;;;4.30;1.80;;;;;;;19.37;53.28;100522.67;217443;1259;139364;-79
2023/09/15 16:29:32;;;;;;;10.10;2.40;;;;;;;19.13;53.94;100522.94;217516;1259;140410;-73
2023/09/15 16:34:37;;;;;;;2.30;2.00;;;;;;;18.88;54.78;100524.58;218587;1259;139461;-77
2023/09/15 16:39:40;;;;;;;6.20;2.40;;;;;;;18.62;55.46;100527.30;217772;1257;139327;-78
2023/09/15 16:44:43;;;;;;;1.80;1.60;;;;;;;18.35;56.37;100535.66;217709;1262;140645;-74
2023/09/15 16:49:46;;;;;;;8.80;2.40;;;;;;;18.08;56.89;100536.29;218071;1259;141172;-82
2023/09/15 16:54:50;;;;;;;3.00;2.30;;;;;;;17.81;57.31;100535.25;218327;1260;139839;-79
2023/09/15 16:59:55;;;;;;;3.00;2.10;;;;;;;17.55;57.72;100533.80;218226;1262;141130;-70
2023/09/15 17:04:58;;;;;;;5.50;2.50;;;;;;;17.31;58.23;100537.66;217648;1258;140821;-70
2023/09/15 17:10:04;;;;;;;7.20;2.20;;;;;;;17.09;58.70;100542.23;218136;1257;139786;-70
2023/09/15 17:15:08;;;;;;;6.70;2.80;;;;;;;16.87;59.18;100539.78;218721;1260;139758;-70
2023/09/15 17:20:12;;;;;;;4.60;1.90;;;;;;;16.66;59.67;100544.44;219281;1258;141141;-71
2023/09/15 17:25:16;;;;;;;5.00;1.80;;;;;;;16.45;60.21;100546.48;217688;1259;140730;-72
2023/09/15 17:30:19;;;;;;;7.50;1.80;;;;;;;16.21;60.13;100542.81;217837;1260;139912;-71
2023/09/15 17:35:23;;;;;;;8.00;2.70;;;;;;;16.01;60.68;100545.71;217416;1262;142381;-70
2023/09/15 17:40:26;;;;;;;3.00;2.50;;;;;;;15.79;60.93;100555.44;217303;1260;140955;-71
2023/09/15 17:45:29;;;;;;;6.30;2.60;;;;;;;15.57;61.34;100558.89;217451;1262;140755;-72
2023/09/15 17:50:32;;;;;;;15.20;3.80;;;;;;;15.37;61.82;100561.69;217288;1260;141810;-71
2023/09/15 17:55:38;;;;;;;6.50;3.30;;;;;;;15.20;62.34;100559.13;217381;1262;141063;-71
2023/09/15 18:00:42;;;;;;;5.60;2.90;;;;;;;14.97;62.33;100563.65;217291;1261;140925;-73
2023/09/15 18:05:46;;;;;;;6.60;3.10;;;;;;;14.77;62.78;100568.28;218298;1260;142091;-74
2023/09/15 18:10:49;;;;;;;4.00;2.20;;;;;;;14.55;63.22;100566.89;217195;1261;139719;-69
2023/09/15 18:15:53;;;;;;;3.60;2.30;;;;;;;14.34;63.56;100571.13;218042;1259;141105;-72
2023/09/15 18:20:56;;;;;;;2.90;2.70;;;;;;;14.11;64.05;100580.27;218326;1259;140801;-73
2023/09/15 18:25:59;;;;;;;10.20;2.60;;;;;;;14.02;65.00;100578.86;218119;1261;141592;-74
2023/09/15 18:31:03;;;;;;;3.10;2.20;;;;;;;13.91;65.20;100580.50;218874;1258;140426;-74
2023/09/15 18:36:06;;;;;;;7.70;3.20;;;;;;;13.71;65.47;100588.86;217847;1262;141015;-77
2023/09/15 18:41:08;;;;;;;11.10;3.60;;;;;;;13.60;65.87;100588.70;217423;1261;140504;-78
2023/09/15 18:46:10;;;;;;;3.00;2.60;;;;;;;13.53;66.32;100593.15;217081;1261;141275;-71
2023/09/15 18:51:13;;;;;;;4.50;2.60;;;;;;;13.42;66.41;100594.09;219767;1262;140450;-76
2023/09/15 18:56:16;;;;;;;9.70;3.80;;;;;;;13.29;66.49;100593.09;218838;1259;141739;-72
2023/09/15 19:01:22;;;;;;;10.50;3.60;;;;;;;13.18;67.07;100593.48;217936;1259;140103;-80
2023/09/15 19:06:29;;;;;;;4.00;2.50;;;;;;;13.08;67.17;100588.83;217699;1258;140582;-76
2023/09/15 19:11:32;;;;;;;5.30;3.40;;;;;;;12.98;67.54;100581.64;218378;1257;141304;-74
2023/09/15 19:16:36;;;;;;;6.30;3.40;;;;;;;12.84;67.80;100584.02;217678;1262;140935;-74
2023/09/15 19:21:38;;;;;;;3.40;2.80;;;;;;;12.72;67.90;100582.16;217363;1258;140031;-76
2023/09/15 19:26:40;;;;;;;10.90;3.60;;;;;;;12.63;68.50;100583.84;217136;1257;140238;-72
2023/09/15 19:31:42;;;;;;;7.10;3.40;;;;;;;12.54;68.54;100579.53;217397;1263;140468;-72
2023/09/15 19:36:44;;;;;;;5.90;3.50;;;;;;;12.45;68.97;100582.86;216984;1257;254016;-73
2023/09/15 19:41:46;;;;;;;5.50;3.30;;;;;;;12.37;69.09;100587.48;217261;1262;140182;-77
2023/09/15 19:46:49;;;;;;;4.70;2.90;;;;;;;12.27;69.21;100587.52;217649;1262;140608;-74
2023/09/15 19:51:52;;;;;;;6.40;3.80;;;;;;;12.19;69.28;100587.86;217410;1257;141984;-74
2023/09/15 19:56:54;;;;;;;16.80;3.60;;;;;;;12.12;69.63;100586.79;217512;1260;141001;-74
2023/09/15 20:01:56;;;;;;;3.00;2.70;;;;;;;12.06;69.70;100586.14;217395;1261;141072;-77
2023/09/15 20:06:59;;;;;;;8.70;3.30;;;;;;;12.01;70.01;100588.83;217552;1258;140197;-78
2023/09/15 20:12:05;;;;;;;9.20;5.00;;;;;;;11.98;70.32;100591.87;217441;1261;140759;-73
2023/09/15 20:17:08;;;;;;;6.70;4.30;;;;;;;11.91;70.51;100591.42;217310;1263;141425;-72
2023/09/15 20:22:11;;;;;;;8.70;4.60;;;;;;;11.80;70.49;100588.25;217530;1261;141108;-73
2023/09/15 20:27:14;;;;;;;4.90;4.10;;;;;;;11.69;70.81;100582.86;217624;1257;139981;-72
2023/09/15 20:32:17;;;;;;;4.10;3.30;;;;;;;11.59;71.02;100585.23;219074;1257;140838;-77
2023/09/15 20:37:20;;;;;;;5.80;4.00;;;;;;;11.50;71.12;100581.22;217558;1257;140303;-74
2023/09/15 20:42:24;;;;;;;6.60;3.40;;;;;;;11.42;71.17;100582.67;217460;1261;141029;-74
2023/09/15 20:47:27;;;;;;;6.30;3.20;;;;;;;11.33;71.30;100585.06;219958;1260;140286;-72
2023/09/15 20:52:29;;;;;;;10.90;4.00;;;;;;;11.27;71.52;100582.21;219915;1258;140764;-72
2023/09/15 20:57:32;;;;;;;4.50;3.80;;;;;;;11.20;71.82;100583.86;219771;1257;140597;-72
2023/09/15 21:02:36;;;;;;;6.70;3.10;;;;;;;11.10;71.75;100588.77;218762;1259;140575;-72
2023/09/15 21:07:44;;;;;;;4.30;3.30;;;;;;;10.94;71.77;100588.09;218373;1259;140236;-72
2023/09/15 21:12:47;;;;;;;;;;;;;;;10.75;72.11;100588.25;217986;1263;141178;-72
2023/09/15 21:17:51;;;;;;;4.30;3.00;;;;;;;10.64;72.68;100587.40;218647;1260;126409;-72
2023/09/15 21:22:56;;;;;;;5.30;3.30;;;;;;;10.64;73.02;100592.73;217432;1257;140126;-75
2023/09/15 21:27:59;;;;;;;5.10;3.90;;;;;;;10.58;72.90;100593.04;217493;1261;141292;-77
2023/09/15 21:33:02;;;;;;;5.10;3.40;;;;;;;10.51;73.13;100596.35;217455;1258;141080;-78
2023/09/15 21:38:06;;;;;;;6.10;3.50;;;;;;;10.44;73.28;100597.92;217248;1262;139981;-73
2023/09/15 21:43:09;;;;;;;7.10;4.00;;;;;;;10.38;73.63;100601.42;217556;1258;140756;-77
2023/09/15 21:48:13;;;;;;;7.30;4.10;;;;;;;10.32;73.48;100601.29;217325;1257;140591;-73
2023/09/15 21:53:21;;;;;;;7.60;3.70;;;;;;;10.22;73.57;100597.25;218149;1257;141013;-69
2023/09/15 21:58:25;;;;;;;;;;;;;;;10.08;73.73;100593.11;217359;1260;140960;-71
2023/09/15 22:03:30;;;;;;;3.40;2.60;;;;;;;9.96;73.85;100590.94;219061;1257;147984;-71
2023/09/15 22:08:34;;;;;;;9.50;4.40;;;;;;;9.87;74.20;100587.27;217195;1262;140974;-69
2023/09/15 22:13:37;;;;;;;8.30;3.70;;;;;;;9.86;74.55;100593.70;217794;1259;140568;-71
2023/09/15 22:18:40;;;;;;;5.40;3.70;;;;;;;9.85;74.69;100594.11;217764;1257;140348;-70
2023/09/15 22:23:43;;;;;;;5.40;4.30;;;;;;;9.81;74.73;100589.45;218421;1261;140354;-71
2023/09/15 22:28:47;;;;;;;4.30;3.40;;;;;;;9.68;74.67;100586.01;217660;1257;141066;-70
2023/09/15 22:33:51;;;;;;;20.00;4.80;;;;;;;9.57;74.77;100587.17;219068;1257;140134;-70
2023/09/15 22:38:53;;;;;;;6.50;4.80;;;;;;;9.51;75.06;100584.67;218373;1257;141912;-71
2023/09/15 22:43:56;;;;;;;5.40;4.50;;;;;;;9.51;75.40;100586.44;219219;1257;139727;-71
2023/09/15 22:48:58;;;;;;;4.60;3.40;;;;;;;9.50;75.57;100583.90;218377;1257;140715;-70
2023/09/15 22:54:01;;;;;;;4.00;3.60;;;;;;;9.48;75.37;100578.88;218969;1257;139575;-70
2023/09/15 22:59:03;;;;;;;3.90;3.50;;;;;;;9.41;75.21;100567.43;218704;1257;139812;-70
2023/09/15 23:04:05;;;;;;;5.80;3.60;;;;;;;9.38;75.63;100566.58;217801;1262;140810;-72